Time;durP1;ratioP1;P1;durP2;ratioP2;P2;SDS_P1;SDS_P2;PMS_P1;PMS_P2;Temp;Humidity;BMP_temperature;BMP_pressure;BME280_temperature;BME280_humidity;BME280_pressure;Samples;Min_cycle;Max_cycle;Signal;HPM_P1;HPM_P2
2022/09/17 00:01:21;;;;;;;5.20;0.63;;;;;;;;;;5013821;28;20049;-69
2022/09/17 00:03:51;;;;;;;1.35;0.60;;;;;;;;;;5013979;28;20137;-68
2022/09/17 00:06:18;;;;;;;3.20;0.80;;;;;;;;;;5014015;28;20138;-69
2022/09/17 00:08:45;;;;;;;1.10;0.50;;;;;;;;;;5012405;28;20053;-69
2022/09/17 00:11:17;;;;;;;2.08;0.65;;;;;;;;;;5013785;28;20053;-69
2022/09/17 00:13:43;;;;;;;2.63;0.50;;;;;;;;;;5013692;28;20078;-69
2022/09/17 00:16:11;;;;;;;1.05;0.60;;;;;;;;;;5013700;28;20128;-68
2022/09/17 00:18:40;;;;;;;1.85;0.60;;;;;;;;;;5013594;28;20096;-68
2022/09/17 00:21:15;;;;;;;2.25;0.68;;;;;;;;;;5012897;28;20077;-69
2022/09/17 00:23:42;;;;;;;0.55;0.47;;;;;;;;;;5013508;28;20096;-69
2022/09/17 00:26:09;;;;;;;0.88;0.60;;;;;;;;;;5013371;28;20050;-69
2022/09/17 00:28:35;;;;;;;4.00;0.88;;;;;;;;;;5013325;28;20508;-69
2022/09/17 00:31:08;;;;;;;1.55;0.80;;;;;;;;;;5013475;28;20488;-69
2022/09/17 00:33:35;;;;;;;;;;;;;;;;;;5013832;28;20052;-69
2022/09/17 00:36:03;;;;;;;1.45;0.75;;;;;;;;;;5013409;28;19971;-69
2022/09/17 00:38:29;;;;;;;2.05;0.65;;;;;;;;;;5013134;28;20049;-68
2022/09/17 00:40:56;;;;;;;3.78;0.80;;;;;;;;;;5013436;28;20049;-69
2022/09/17 00:43:51;;;;;;;1.98;0.60;;;;;;;;;;5013272;28;20475;-69
2022/09/17 00:46:32;;;;;;;2.58;0.73;;;;;;;;;;5011267;28;20456;-69
2022/09/17 00:49:03;;;;;;;1.70;0.90;;;;;;;;;;5012915;28;20091;-69
2022/09/17 00:51:34;;;;;;;2.95;0.63;;;;;;;;;;5011743;28;20053;-69
2022/09/17 00:54:03;;;;;;;2.45;0.63;;;;;;;;;;4995692;28;20061;-69
2022/09/17 00:56:32;;;;;;;2.15;0.77;;;;;;;;;;4995622;28;20096;-69
2022/09/17 00:58:59;;;;;;;1.15;0.60;;;;;;;;;;5012990;28;20057;-69
2022/09/17 01:01:26;;;;;;;1.15;0.70;;;;;;;;;;4979505;28;20073;-69
2022/09/17 01:03:52;;;;;;;1.10;1.00;;;;;;;;;;4995340;28;20053;-69
2022/09/17 01:06:43;;;;;;;1.35;0.70;;;;;;;;;;5012736;28;20049;-70
2022/09/17 01:09:14;;;;;;;0.95;0.68;;;;;;;;;;4995346;28;20501;-68
2022/09/17 01:12:08;;;;;;;2.35;0.98;;;;;;;;;;5012772;28;20057;-68
2022/09/17 01:14:38;;;;;;;3.65;0.80;;;;;;;;;;5012907;28;20046;-68
2022/09/17 01:17:26;;;;;;;2.17;0.80;;;;;;;;;;5012745;28;20096;-69
2022/09/17 01:19:52;;;;;;;5.32;1.38;;;;;;;;;;5012472;28;20054;-69
2022/09/17 01:22:33;;;;;;;3.10;0.90;;;;;;;;;;5012429;28;20072;-68
2022/09/17 01:25:23;;;;;;;3.15;0.85;;;;;;;;;;5012569;28;20464;-68
2022/09/17 01:27:53;;;;;;;1.45;0.70;;;;;;;;;;4995121;28;20048;-68
2022/09/17 01:30:42;;;;;;;1.27;0.70;;;;;;;;;;5012649;28;20088;-69
2022/09/17 01:33:14;;;;;;;2.50;0.98;;;;;;;;;;5012127;28;20124;-68
2022/09/17 01:35:58;;;;;;;3.47;0.90;;;;;;;;;;4995052;28;20169;-69
2022/09/17 01:38:49;;;;;;;1.27;0.68;;;;;;;;;;5012401;28;20054;-69
2022/09/17 01:41:22;;;;;;;2.28;0.95;;;;;;;;;;4995209;28;20121;-69
2022/09/17 01:43:54;;;;;;;2.25;1.08;;;;;;;;;;4995503;28;20049;-69
2022/09/17 01:46:29;;;;;;;6.50;0.90;;;;;;;;;;4995457;28;20444;-68
2022/09/17 01:48:58;;;;;;;19.60;2.75;;;;;;;;;;4978996;28;20050;-68
2022/09/17 01:51:26;;;;;;;1.33;0.88;;;;;;;;;;4994986;28;20493;-68
2022/09/17 01:54:22;;;;;;;1.90;0.77;;;;;;;;;;4978628;28;20049;-69
2022/09/17 01:57:12;;;;;;;3.75;1.00;;;;;;;;;;4995864;28;20265;-69
2022/09/17 01:59:43;;;;;;;2.42;0.90;;;;;;;;;;4980290;28;20501;-68
2022/09/17 02:02:15;;;;;;;3.45;1.13;;;;;;;;;;4978814;28;20061;-69
2022/09/17 02:05:00;;;;;;;3.15;1.00;;;;;;;;;;4979645;28;20216;-69
2022/09/17 02:07:27;;;;;;;1.98;0.75;;;;;;;;;;4996417;28;20042;-69
2022/09/17 02:10:02;;;;;;;2.42;0.98;;;;;;;;;;5012116;28;20050;-69
2022/09/17 02:12:32;;;;;;;1.67;0.93;;;;;;;;;;5011967;28;20053;-68
2022/09/17 02:15:00;;;;;;;4.90;1.23;;;;;;;;;;4979063;28;20479;-69
2022/09/17 02:17:39;;;;;;;3.50;1.00;;;;;;;;;;4994590;28;20041;-69
2022/09/17 02:20:06;;;;;;;3.67;1.30;;;;;;;;;;4979469;28;20061;-69
2022/09/17 02:22:38;;;;;;;2.40;1.00;;;;;;;;;;5011975;28;20497;-69
2022/09/17 02:25:19;;;;;;;2.92;1.10;;;;;;;;;;5010772;28;20050;-69
2022/09/17 02:28:05;;;;;;;3.05;0.95;;;;;;;;;;4994312;28;20046;-69
2022/09/17 02:30:31;;;;;;;2.22;1.13;;;;;;;;;;5011989;28;20057;-69
2022/09/17 02:32:59;;;;;;;5.07;1.15;;;;;;;;;;5011819;28;20058;-70
2022/09/17 02:35:26;;;;;;;3.60;1.30;;;;;;;;;;4994347;28;20070;-69
2022/09/17 02:37:52;;;;;;;1.27;0.98;;;;;;;;;;5011903;28;20413;-69
2022/09/17 02:40:19;;;;;;;4.22;0.93;;;;;;;;;;5011708;28;20046;-68
2022/09/17 02:43:20;;;;;;;4.28;1.23;;;;;;;;;;4994474;28;20465;-68
2022/09/17 02:46:07;;;;;;;5.45;1.63;;;;;;;;;;5015022;28;20394;-69
2022/09/17 02:49:14;;;;;;;1.45;0.88;;;;;;;;;;5010376;28;20074;-68
2022/09/17 02:51:52;;;;;;;4.18;1.20;;;;;;;;;;5000462;28;20053;-68
2022/09/17 02:54:25;;;;;;;3.08;0.95;;;;;;;;;;4998089;28;20050;-68
2022/09/17 02:57:01;;;;;;;;;;;;;;;;;;4999558;28;20058;-68
2022/09/17 02:59:58;;;;;;;3.38;1.08;;;;;;;;;;5039981;28;19905;-68
2022/09/17 03:02:32;;;;;;;4.53;1.17;;;;;;;;;;5021527;28;20076;-67
2022/09/17 03:04:59;;;;;;;3.83;0.80;;;;;;;;;;4999643;28;20169;-68
2022/09/17 03:07:27;;;;;;;2.22;1.02;;;;;;;;;;4998552;28;20046;-69
2022/09/17 03:09:54;;;;;;;3.25;0.98;;;;;;;;;;5016061;28;20054;-69
2022/09/17 03:12:23;;;;;;;2.58;0.88;;;;;;;;;;5035621;28;20038;-68
2022/09/17 03:14:50;;;;;;;3.20;1.00;;;;;;;;;;5022147;28;20040;-68
2022/09/17 03:17:16;;;;;;;1.38;0.80;;;;;;;;;;5039669;28;20050;-68
2022/09/17 03:19:43;;;;;;;2.67;1.05;;;;;;;;;;5039760;28;20065;-68
2022/09/17 03:22:11;;;;;;;6.15;1.20;;;;;;;;;;5039749;28;20030;-68
2022/09/17 03:24:38;;;;;;;1.67;1.00;;;;;;;;;;5039849;28;20062;-68
2022/09/17 03:27:04;;;;;;;5.25;1.20;;;;;;;;;;5039627;28;20056;-69
2022/09/17 03:29:32;;;;;;;5.90;1.17;;;;;;;;;;5039283;28;20030;-69
2022/09/17 03:31:59;;;;;;;5.90;1.67;;;;;;;;;;5039446;28;20030;-68
2022/09/17 03:34:26;;;;;;;2.75;1.20;;;;;;;;;;5035606;28;20076;-69
2022/09/17 03:36:53;;;;;;;5.05;1.40;;;;;;;;;;5016699;28;20042;-69
2022/09/17 03:39:19;;;;;;;2.45;1.25;;;;;;;;;;5015493;28;20425;-69
2022/09/17 03:41:46;;;;;;;4.90;0.90;;;;;;;;;;5015340;28;20100;-68
2022/09/17 03:44:14;;;;;;;3.67;1.13;;;;;;;;;;5015171;28;20108;-69
2022/09/17 03:46:41;;;;;;;5.57;1.10;;;;;;;;;;5015207;28;20042;-69
2022/09/17 03:49:08;;;;;;;5.25;1.42;;;;;;;;;;4997949;28;20053;-70
2022/09/17 03:51:34;;;;;;;3.60;1.42;;;;;;;;;;5015465;28;20181;-69
2022/09/17 03:54:02;;;;;;;2.97;1.00;;;;;;;;;;5015134;28;20050;-69
2022/09/17 03:56:28;;;;;;;2.15;1.00;;;;;;;;;;5014556;28;20077;-69
2022/09/17 03:58:59;;;;;;;4.70;1.40;;;;;;;;;;5014558;28;20097;-69
2022/09/17 04:01:27;;;;;;;1.98;1.10;;;;;;;;;;4997695;28;20080;-69
2022/09/17 04:03:53;;;;;;;5.07;1.42;;;;;;;;;;4997184;28;20398;-69
2022/09/17 04:06:20;;;;;;;2.47;1.48;;;;;;;;;;5014486;28;20054;-69
2022/09/17 04:08:47;;;;;;;4.70;1.42;;;;;;;;;;5014100;28;20460;-69
2022/09/17 04:11:14;;;;;;;2.72;1.25;;;;;;;;;;5014695;28;20050;-69
2022/09/17 04:13:40;;;;;;;4.97;1.40;;;;;;;;;;5013760;28;20493;-68
2022/09/17 04:16:07;;;;;;;5.13;1.63;;;;;;;;;;5013897;28;20054;-69
2022/09/17 04:18:34;;;;;;;5.53;2.28;;;;;;;;;;5013731;28;20041;-69
2022/09/17 04:21:00;;;;;;;6.55;1.55;;;;;;;;;;5014041;28;20128;-69
2022/09/17 04:23:27;;;;;;;5.38;1.20;;;;;;;;;;5014023;28;20046;-68
2022/09/17 04:25:53;;;;;;;2.08;1.02;;;;;;;;;;5013563;28;20129;-68
2022/09/17 04:28:20;;;;;;;2.35;1.25;;;;;;;;;;5013622;28;20042;-69
2022/09/17 04:30:47;;;;;;;4.47;1.23;;;;;;;;;;5013424;28;20073;-68
2022/09/17 04:33:14;;;;;;;3.97;1.17;;;;;;;;;;5013455;28;20128;-69
2022/09/17 04:35:42;;;;;;;2.92;1.30;;;;;;;;;;5013734;28;20075;-68
2022/09/17 04:38:09;;;;;;;2.72;1.10;;;;;;;;;;5013247;28;20054;-68
2022/09/17 04:40:35;;;;;;;2.85;1.20;;;;;;;;;;5013845;28;20229;-69
2022/09/17 04:43:03;;;;;;;4.80;1.10;;;;;;;;;;5013157;28;20049;-68
2022/09/17 04:45:32;;;;;;;5.43;1.55;;;;;;;;;;5013672;28;20046;-69
2022/09/17 04:47:59;;;;;;;3.47;1.60;;;;;;;;;;5013447;28;20052;-69
2022/09/17 04:50:25;;;;;;;4.50;1.30;;;;;;;;;;5013311;28;20240;-69
2022/09/17 04:52:52;;;;;;;4.90;1.45;;;;;;;;;;5013113;28;20461;-69
2022/09/17 04:55:18;;;;;;;6.90;1.38;;;;;;;;;;5013414;28;20058;-69
2022/09/17 04:57:50;;;;;;;4.97;1.60;;;;;;;;;;5013276;28;20042;-69
2022/09/17 05:00:17;;;;;;;3.92;1.30;;;;;;;;;;5012903;28;20108;-69
2022/09/17 05:02:45;;;;;;;5.90;1.50;;;;;;;;;;5012675;28;20567;-68
2022/09/17 05:05:13;;;;;;;2.70;1.40;;;;;;;;;;5012835;28;20046;-69
2022/09/17 05:07:40;;;;;;;2.92;1.45;;;;;;;;;;5012403;28;20563;-68
2022/09/17 05:10:07;;;;;;;2.72;1.40;;;;;;;;;;4995634;28;20057;-68
2022/09/17 05:12:34;;;;;;;3.22;1.17;;;;;;;;;;5012908;28;20104;-68
2022/09/17 05:15:01;;;;;;;8.63;1.65;;;;;;;;;;5013083;28;20054;-68
2022/09/17 05:17:27;;;;;;;4.60;1.67;;;;;;;;;;4995423;28;20077;-69
2022/09/17 05:19:54;;;;;;;3.25;1.30;;;;;;;;;;5012382;28;20556;-69
2022/09/17 05:22:21;;;;;;;4.13;1.45;;;;;;;;;;5012756;28;20056;-69
2022/09/17 05:24:47;;;;;;;2.58;1.45;;;;;;;;;;5012863;28;20058;-69
2022/09/17 05:27:14;;;;;;;3.85;1.13;;;;;;;;;;5012583;28;20046;-68
2022/09/17 05:29:41;;;;;;;6.18;1.38;;;;;;;;;;5012454;28;20054;-69
2022/09/17 05:32:07;;;;;;;4.35;1.33;;;;;;;;;;5012667;28;20062;-69
2022/09/17 05:34:34;;;;;;;4.88;1.60;;;;;;;;;;5012410;28;20100;-69
2022/09/17 05:37:01;;;;;;;4.18;1.42;;;;;;;;;;5012732;28;20061;-69
2022/09/17 05:39:27;;;;;;;4.38;1.60;;;;;;;;;;5012599;28;20493;-69
2022/09/17 05:41:54;;;;;;;2.88;1.30;;;;;;;;;;5012382;28;20100;-69
2022/09/17 05:44:22;;;;;;;3.75;1.50;;;;;;;;;;5012572;28;20050;-69
2022/09/17 05:46:51;;;;;;;6.70;1.55;;;;;;;;;;5012307;28;20049;-69
2022/09/17 05:49:18;;;;;;;4.05;1.38;;;;;;;;;;4995022;28;20052;-69
2022/09/17 05:51:45;;;;;;;6.07;1.58;;;;;;;;;;5012315;28;20501;-69
2022/09/17 05:54:11;;;;;;;7.35;1.50;;;;;;;;;;5068366;23;20049;-67
2022/09/17 05:56:38;;;;;;;5.18;2.05;;;;;;;;;;5031794;28;20052;-68
2022/09/17 05:59:04;;;;;;;5.68;1.45;;;;;;;;;;5031236;28;20072;-67
2022/09/17 06:01:31;;;;;;;3.28;1.60;;;;;;;;;;5031507;28;20053;-66
2022/09/17 06:03:58;;;;;;;3.72;1.75;;;;;;;;;;5031334;28;20100;-67
2022/09/17 06:06:28;;;;;;;8.05;1.70;;;;;;;;;;5031869;28;20084;-66
2022/09/17 06:08:58;;;;;;;6.60;1.48;;;;;;;;;;5031407;28;20125;-67
2022/09/17 06:11:24;;;;;;;4.22;1.40;;;;;;;;;;4998354;28;20045;-66
2022/09/17 06:13:52;;;;;;;6.30;1.35;;;;;;;;;;5031310;28;20500;-66
2022/09/17 06:16:20;;;;;;;6.78;2.22;;;;;;;;;;5031380;28;20130;-66
2022/09/17 06:18:48;;;;;;;5.22;1.42;;;;;;;;;;5013751;28;20042;-67
2022/09/17 06:21:18;;;;;;;5.25;1.65;;;;;;;;;;5001605;28;20057;-67
2022/09/17 06:23:45;;;;;;;4.40;1.42;;;;;;;;;;5018126;28;20056;-66
2022/09/17 06:26:11;;;;;;;6.43;1.83;;;;;;;;;;5001379;28;20523;-66
2022/09/17 06:28:38;;;;;;;5.82;1.70;;;;;;;;;;5001411;28;20049;-67
2022/09/17 06:31:08;;;;;;;4.38;1.42;;;;;;;;;;5017703;28;20126;-66
2022/09/17 06:33:35;;;;;;;7.03;1.60;;;;;;;;;;5001416;28;20096;-68
2022/09/17 06:36:07;;;;;;;5.85;1.65;;;;;;;;;;5035019;28;20483;-67
2022/09/17 06:38:39;;;;;;;3.47;1.27;;;;;;;;;;5034851;28;20468;-67
2022/09/17 06:41:06;;;;;;;5.10;1.52;;;;;;;;;;5017737;28;20049;-66
2022/09/17 06:43:32;;;;;;;7.88;1.80;;;;;;;;;;5034656;28;20061;-67
2022/09/17 06:46:01;;;;;;;7.10;1.83;;;;;;;;;;5034967;28;20241;-67
2022/09/17 06:48:29;;;;;;;5.13;1.40;;;;;;;;;;5001037;28;20046;-67
2022/09/17 06:51:01;;;;;;;3.58;1.20;;;;;;;;;;5017366;28;20128;-66
2022/09/17 06:53:28;;;;;;;5.72;1.52;;;;;;;;;;5001165;28;20337;-67
2022/09/17 06:55:59;;;;;;;4.85;1.30;;;;;;;;;;5034402;28;20136;-66
2022/09/17 06:58:32;;;;;;;5.40;1.67;;;;;;;;;;5034461;28;20126;-67
2022/09/17 07:01:00;;;;;;;4.75;1.35;;;;;;;;;;5017081;28;20053;-67
2022/09/17 07:03:27;;;;;;;4.72;1.65;;;;;;;;;;5017010;28;20166;-67
2022/09/17 07:05:54;;;;;;;4.72;1.90;;;;;;;;;;5000874;28;20099;-66
2022/09/17 07:08:21;;;;;;;3.28;1.45;;;;;;;;;;5017112;28;20041;-66
2022/09/17 07:10:47;;;;;;;5.45;1.85;;;;;;;;;;5035018;28;20056;-66
2022/09/17 07:13:14;;;;;;;3.03;1.38;;;;;;;;;;5034488;28;20049;-66
2022/09/17 07:15:41;;;;;;;4.70;1.60;;;;;;;;;;5016982;28;20053;-67
2022/09/17 07:18:09;;;;;;;3.63;1.60;;;;;;;;;;5034617;28;20049;-67
2022/09/17 07:20:35;;;;;;;3.47;1.85;;;;;;;;;;5017819;28;20053;-67
2022/09/17 07:23:02;;;;;;;4.50;1.60;;;;;;;;;;5000678;28;20054;-65
2022/09/17 07:25:29;;;;;;;8.05;2.00;;;;;;;;;;5034959;28;20057;-67
2022/09/17 07:27:55;;;;;;;4.32;2.00;;;;;;;;;;5034078;28;20041;-68
2022/09/17 07:30:22;;;;;;;5.68;2.17;;;;;;;;;;5033558;28;20168;-67
2022/09/17 07:32:49;;;;;;;7.18;2.83;;;;;;;;;;5000075;28;20049;-67
2022/09/17 07:35:16;;;;;;;4.38;2.10;;;;;;;;;;5033844;28;20049;-67
2022/09/17 07:37:43;;;;;;;4.70;2.80;;;;;;;;;;5016135;28;20053;-67
2022/09/17 07:40:09;;;;;;;5.35;2.38;;;;;;;;;;5000104;28;20126;-67
2022/09/17 07:42:36;;;;;;;5.93;2.63;;;;;;;;;;5033778;28;20045;-67
2022/09/17 07:45:03;;;;;;;6.10;3.08;;;;;;;;;;5016101;28;20120;-66
2022/09/17 07:47:29;;;;;;;6.85;3.15;;;;;;;;;;5016263;28;20087;-67
2022/09/17 07:49:56;;;;;;;4.78;2.75;;;;;;;;;;4999566;28;20049;-67
2022/09/17 07:52:23;;;;;;;7.18;3.00;;;;;;;;;;5015836;28;20061;-66
2022/09/17 07:54:50;;;;;;;4.25;2.10;;;;;;;;;;5033738;28;20053;-68
2022/09/17 07:57:16;;;;;;;6.75;2.40;;;;;;;;;;5033539;28;20542;-68
2022/09/17 07:59:43;;;;;;;5.35;2.80;;;;;;;;;;4999542;28;20045;-67
2022/09/17 08:02:12;;;;;;;7.85;3.25;;;;;;;;;;5015915;28;20065;-67
2022/09/17 08:04:42;;;;;;;8.90;2.90;;;;;;;;;;5000191;28;20488;-68
2022/09/17 08:07:12;;;;;;;6.28;2.88;;;;;;;;;;5015992;28;20045;-67
2022/09/17 08:09:38;;;;;;;5.03;2.58;;;;;;;;;;5033124;28;20050;-68
2022/09/17 08:12:06;;;;;;;4.20;1.85;;;;;;;;;;5032909;28;20076;-67
2022/09/17 08:14:32;;;;;;;5.95;2.72;;;;;;;;;;5015533;28;20515;-67
2022/09/17 08:16:59;;;;;;;4.68;2.75;;;;;;;;;;5015557;28;20049;-66
2022/09/17 08:19:30;;;;;;;9.20;2.47;;;;;;;;;;4998899;28;20041;-67
2022/09/17 08:21:56;;;;;;;4.90;2.30;;;;;;;;;;5033123;28;20107;-67
2022/09/17 08:24:23;;;;;;;6.35;2.50;;;;;;;;;;5015403;28;20053;-67
2022/09/17 08:26:49;;;;;;;3.67;2.22;;;;;;;;;;5033101;28;20060;-66
2022/09/17 08:29:16;;;;;;;9.60;3.85;;;;;;;;;;5032576;28;20050;-67
2022/09/17 08:31:44;;;;;;;7.80;2.35;;;;;;;;;;4998727;28;20420;-67
2022/09/17 08:34:10;;;;;;;5.85;2.28;;;;;;;;;;5032665;28;20050;-68
2022/09/17 08:36:37;;;;;;;5.68;2.65;;;;;;;;;;5015357;28;20057;-67
2022/09/17 08:39:04;;;;;;;5.53;2.22;;;;;;;;;;5032578;28;20084;-66
2022/09/17 08:41:31;;;;;;;6.40;2.58;;;;;;;;;;5014715;28;20446;-67
2022/09/17 08:44:17;;;;;;;4.82;2.13;;;;;;;;;;5014827;28;20507;-67
2022/09/17 08:46:48;;;;;;;4.53;2.45;;;;;;;;;;5014891;28;20045;-68
2022/09/17 08:49:20;;;;;;;7.63;2.15;;;;;;;;;;5014849;28;20050;-67
2022/09/17 08:51:58;;;;;;;8.52;2.70;;;;;;;;;;5032304;28;20084;-68
2022/09/17 08:54:34;;;;;;;7.65;2.05;;;;;;;;;;5014760;28;20111;-68
2022/09/17 08:57:28;;;;;;;7.28;2.20;;;;;;;;;;5032441;28;20053;-67
2022/09/17 08:59:58;;;;;;;6.95;2.78;;;;;;;;;;5001083;28;20484;-67
2022/09/17 09:02:39;;;;;;;9.10;2.88;;;;;;;;;;5014630;28;20060;-66
2022/09/17 09:05:15;;;;;;;7.47;2.25;;;;;;;;;;5032517;28;20054;-67
2022/09/17 09:07:46;;;;;;;6.82;1.88;;;;;;;;;;5015296;28;20053;-68
2022/09/17 09:10:23;;;;;;;9.18;2.65;;;;;;;;;;5015068;28;20100;-68
2022/09/17 09:12:51;;;;;;;7.43;1.98;;;;;;;;;;5014647;28;20060;-67
2022/09/17 09:15:26;;;;;;;9.85;2.05;;;;;;;;;;4982609;28;20049;-67
2022/09/17 09:17:53;;;;;;;3.70;1.65;;;;;;;;;;5015002;28;20050;-68
2022/09/17 09:20:46;;;;;;;9.23;2.20;;;;;;;;;;5031972;28;20045;-67
2022/09/17 09:23:52;;;;;;;8.98;2.00;;;;;;;;;;5029320;28;20046;-67
2022/09/17 09:26:20;;;;;;;5.32;1.52;;;;;;;;;;5031791;28;20049;-67
2022/09/17 09:28:50;;;;;;;7.82;1.73;;;;;;;;;;5014641;28;20045;-66
2022/09/17 09:31:23;;;;;;;11.10;2.28;;;;;;;;;;5031889;28;20084;-68
2022/09/17 09:33:50;;;;;;;5.95;2.08;;;;;;;;;;5031933;28;20508;-67
2022/09/17 09:36:20;;;;;;;7.05;1.98;;;;;;;;;;4997925;28;20053;-68
2022/09/17 09:38:56;;;;;;;7.75;2.47;;;;;;;;;;5031549;28;20208;-66
2022/09/17 09:41:27;;;;;;;5.20;1.83;;;;;;;;;;4998193;28;20566;-67
2022/09/17 09:44:02;;;;;;;9.57;1.95;;;;;;;;;;4998298;28;20492;-68
2022/09/17 09:46:56;;;;;;;8.07;1.77;;;;;;;;;;4998682;28;20455;-67
2022/09/17 09:49:26;;;;;;;7.35;1.83;;;;;;;;;;5031593;28;20100;-67
2022/09/17 09:52:14;;;;;;;6.18;1.63;;;;;;;;;;5031860;28;20091;-68
2022/09/17 09:55:06;;;;;;;6.32;1.33;;;;;;;;;;5017612;28;20049;-68
2022/09/17 09:57:47;;;;;;;10.95;1.75;;;;;;;;;;5018840;28;20163;-67
2022/09/17 10:00:37;;;;;;;5.60;1.40;;;;;;;;;;5002375;28;20050;-66
2022/09/17 10:03:22;;;;;;;9.93;1.98;;;;;;;;;;5035750;28;20049;-66
2022/09/17 10:05:56;;;;;;;5.50;1.30;;;;;;;;;;5003075;28;20054;-67
2022/09/17 10:08:23;;;;;;;5.45;1.67;;;;;;;;;;5018168;28;20087;-68
2022/09/17 10:10:55;;;;;;;8.60;1.88;;;;;;;;;;5018136;28;20057;-67
2022/09/17 10:13:22;;;;;;;8.85;1.70;;;;;;;;;;5018127;28;20049;-67
2022/09/17 10:15:48;;;;;;;4.75;1.25;;;;;;;;;;5017983;28;20053;-67
2022/09/17 10:18:17;;;;;;;6.40;1.70;;;;;;;;;;5035055;28;20049;-67
2022/09/17 10:21:32;;;;;;;5.63;1.30;;;;;;;;;;5017680;28;20504;-66
2022/09/17 10:24:02;;;;;;;3.47;1.60;;;;;;;;;;5030178;28;20060;-66
2022/09/17 10:26:31;;;;;;;6.18;2.42;;;;;;;;;;5018180;28;20049;-67
2022/09/17 10:28:59;;;;;;;9.07;2.35;;;;;;;;;;5017831;28;20045;-68
2022/09/17 10:31:26;;;;;;;5.15;2.10;;;;;;;;;;5035271;28;20064;-68
2022/09/17 10:34:02;;;;;;;5.15;1.77;;;;;;;;;;5034814;28;20084;-66
2022/09/17 10:36:40;;;;;;;4.18;1.95;;;;;;;;;;5017419;28;20057;-68
2022/09/17 10:39:26;;;;;;;3.17;1.40;;;;;;;;;;5017639;28;20049;-68
2022/09/17 10:42:00;;;;;;;5.05;1.27;;;;;;;;;;5017449;28;20481;-67
2022/09/17 10:44:32;;;;;;;6.43;1.50;;;;;;;;;;5017297;28;20045;-66
2022/09/17 10:47:28;;;;;;;6.90;2.00;;;;;;;;;;5001130;28;20559;-67
2022/09/17 10:50:02;;;;;;;4.13;2.13;;;;;;;;;;5015794;28;20296;-66
2022/09/17 10:52:37;;;;;;;6.15;1.83;;;;;;;;;;5017896;28;20095;-66
2022/09/17 10:55:13;;;;;;;3.70;1.27;;;;;;;;;;4984701;28;20057;-65
2022/09/17 10:57:56;;;;;;;5.40;1.08;;;;;;;;;;5016927;28;20457;-66
2022/09/17 11:00:23;;;;;;;4.00;1.20;;;;;;;;;;5017004;28;20468;-65
2022/09/17 11:03:08;;;;;;;4.25;1.02;;;;;;;;;;5017205;28;20050;-66
2022/09/17 11:05:38;;;;;;;5.15;2.00;;;;;;;;;;5033708;28;20053;-66
2022/09/17 11:08:34;;;;;;;6.05;1.50;;;;;;;;;;5016607;28;20099;-65
2022/09/17 11:11:17;;;;;;;3.72;1.38;;;;;;;;;;5034042;28;20103;-66
2022/09/17 11:13:50;;;;;;;4.05;1.23;;;;;;;;;;5016629;28;20424;-66
2022/09/17 11:16:32;;;;;;;2.20;1.10;;;;;;;;;;5000883;28;20103;-65
2022/09/17 11:19:16;;;;;;;7.03;1.25;;;;;;;;;;5034079;28;20424;-66
2022/09/17 11:22:05;;;;;;;3.35;0.80;;;;;;;;;;5034592;28;20064;-65
2022/09/17 11:24:56;;;;;;;4.07;1.40;;;;;;;;;;5034008;28;20578;-66
2022/09/17 11:27:46;;;;;;;5.97;1.05;;;;;;;;;;5016560;28;20103;-66
2022/09/17 11:30:17;;;;;;;3.63;1.02;;;;;;;;;;5024908;28;20057;-65
2022/09/17 11:33:10;;;;;;;4.25;1.05;;;;;;;;;;5016417;28;20104;-66
2022/09/17 11:35:47;;;;;;;4.25;1.00;;;;;;;;;;5032850;28;20045;-65
2022/09/17 11:38:39;;;;;;;3.30;1.35;;;;;;;;;;5000288;28;20053;-66
2022/09/17 11:41:30;;;;;;;1.23;0.70;;;;;;;;;;5000167;28;20119;-65
2022/09/17 11:44:12;;;;;;;2.05;0.80;;;;;;;;;;5002391;28;20049;-66
2022/09/17 11:46:47;;;;;;;3.67;1.00;;;;;;;;;;5016387;28;20063;-65
2022/09/17 11:49:17;;;;;;;3.35;0.75;;;;;;;;;;5016239;28;20056;-65
2022/09/17 11:51:46;;;;;;;3.72;0.90;;;;;;;;;;5033421;28;20099;-66
2022/09/17 11:54:21;;;;;;;6.78;1.15;;;;;;;;;;5019759;23;20100;-69
2022/09/17 11:56:50;;;;;;;3.58;1.10;;;;;;;;;;4997012;28;20076;-68
2022/09/17 11:59:24;;;;;;;4.43;0.85;;;;;;;;;;4996757;28;20042;-69
2022/09/17 12:01:52;;;;;;;3.85;1.02;;;;;;;;;;4996793;28;20510;-69
2022/09/17 12:04:39;;;;;;;4.00;0.90;;;;;;;;;;5014405;28;20049;-69
2022/09/17 12:07:41;;;;;;;7.95;1.10;;;;;;;;;;5014241;28;20042;-69
2022/09/17 12:10:19;;;;;;;6.15;1.40;;;;;;;;;;4990957;28;20046;-69
2022/09/17 12:12:52;;;;;;;4.38;1.23;;;;;;;;;;5013870;28;20046;-69
2022/09/17 12:15:23;;;;;;;3.15;1.35;;;;;;;;;;4981124;28;20104;-69
2022/09/17 12:18:02;;;;;;;7.03;1.67;;;;;;;;;;4979260;28;20100;-70
2022/09/17 12:20:51;;;;;;;2.78;0.93;;;;;;;;;;4986565;28;20172;-69
2022/09/17 12:23:27;;;;;;;3.45;1.20;;;;;;;;;;4980872;28;20492;-69
2022/09/17 12:26:12;;;;;;;4.30;0.82;;;;;;;;;;5013642;28;20050;-69
2022/09/17 12:29:06;;;;;;;3.72;0.80;;;;;;;;;;5013598;28;20120;-70
2022/09/17 12:31:58;;;;;;;6.80;1.67;;;;;;;;;;5013709;28;20500;-69
2022/09/17 12:34:27;;;;;;;3.55;0.82;;;;;;;;;;5013824;28;20057;-69
2022/09/17 12:37:18;;;;;;;3.92;0.80;;;;;;;;;;4996163;28;20100;-69
2022/09/17 12:40:00;;;;;;;2.30;0.90;;;;;;;;;;4995730;28;20092;-69
2022/09/17 12:42:46;;;;;;;2.97;0.90;;;;;;;;;;4997937;28;20124;-69
2022/09/17 12:45:19;;;;;;;2.58;1.30;;;;;;;;;;4981965;28;20046;-69
2022/09/17 12:47:59;;;;;;;5.13;1.55;;;;;;;;;;5013453;28;20080;-69
2022/09/17 12:50:32;;;;;;;6.50;1.40;;;;;;;;;;4980249;28;20050;-69
2022/09/17 12:53:14;;;;;;;2.30;1.13;;;;;;;;;;5013323;28;20480;-69
2022/09/17 12:56:02;;;;;;;7.13;1.33;;;;;;;;;;4998247;28;20046;-69
2022/09/17 12:59:05;;;;;;;1.27;0.60;;;;;;;;;;5013004;28;20559;-69
2022/09/17 13:01:38;;;;;;;1.52;0.47;;;;;;;;;;5013202;28;20053;-69
2022/09/17 13:04:33;;;;;;;2.17;0.60;;;;;;;;;;4995939;28;20077;-69
2022/09/17 13:07:29;;;;;;;5.30;1.35;;;;;;;;;;5013178;28;20136;-69
2022/09/17 13:10:00;;;;;;;2.08;0.60;;;;;;;;;;5013274;28;20050;-69
2022/09/17 13:12:29;;;;;;;1.98;0.60;;;;;;;;;;4995740;28;20406;-69
2022/09/17 13:15:11;;;;;;;2.45;0.80;;;;;;;;;;5012976;28;20053;-69
2022/09/17 13:17:57;;;;;;;1.45;0.60;;;;;;;;;;5013234;28;20489;-69
2022/09/17 13:21:08;;;;;;;1.20;0.60;;;;;;;;;;4998332;28;20140;-69
2022/09/17 13:23:43;;;;;;;0.80;0.63;;;;;;;;;;5002653;28;20112;-69
2022/09/17 13:26:16;;;;;;;1.15;0.60;;;;;;;;;;4996017;28;20046;-69
2022/09/17 13:28:45;;;;;;;0.77;0.50;;;;;;;;;;4995272;28;20116;-69
2022/09/17 13:31:22;;;;;;;0.30;0.20;;;;;;;;;;4980033;28;20436;-69
2022/09/17 13:33:54;;;;;;;1.63;0.50;;;;;;;;;;4995304;28;20054;-69
2022/09/17 13:36:47;;;;;;;2.35;0.60;;;;;;;;;;5012784;28;20057;-69
2022/09/17 13:39:42;;;;;;;1.63;0.73;;;;;;;;;;4995235;28;20054;-69
2022/09/17 13:42:17;;;;;;;3.78;1.52;;;;;;;;;;4979082;28;20456;-69
2022/09/17 13:45:09;;;;;;;2.20;0.50;;;;;;;;;;5012634;28;20050;-69
2022/09/17 13:47:57;;;;;;;2.30;0.70;;;;;;;;;;5012661;28;20056;-69
2022/09/17 13:50:33;;;;;;;1.30;0.70;;;;;;;;;;5012625;28;20562;-69
2022/09/17 13:53:13;;;;;;;3.08;1.13;;;;;;;;;;5012548;28;20050;-69
2022/09/17 13:55:48;;;;;;;1.77;0.35;;;;;;;;;;5012699;28;20500;-69
2022/09/17 13:58:17;;;;;;;2.33;0.50;;;;;;;;;;4995108;28;20104;-69
2022/09/17 14:00:47;;;;;;;1.60;0.60;;;;;;;;;;5012174;28;20050;-69
2022/09/17 14:03:37;;;;;;;1.33;0.60;;;;;;;;;;5012348;28;20050;-69
2022/09/17 14:06:03;;;;;;;1.90;0.47;;;;;;;;;;5012365;28;20054;-69
2022/09/17 14:08:53;;;;;;;2.45;1.00;;;;;;;;;;5012309;28;20108;-69
2022/09/17 14:11:27;;;;;;;2.15;0.63;;;;;;;;;;4995414;28;20046;-69
2022/09/17 14:14:03;;;;;;;3.20;0.70;;;;;;;;;;5012587;28;20057;-69
2022/09/17 14:16:34;;;;;;;1.88;0.65;;;;;;;;;;5012601;28;20489;-69
2022/09/17 14:19:38;;;;;;;2.95;0.70;;;;;;;;;;5012423;28;20049;-69
2022/09/17 14:22:05;;;;;;;4.38;0.77;;;;;;;;;;5012783;28;20108;-69
2022/09/17 14:24:48;;;;;;;1.73;0.90;;;;;;;;;;5013512;28;20053;-69
2022/09/17 14:27:41;;;;;;;5.38;1.55;;;;;;;;;;5012434;28;20058;-69
2022/09/17 14:30:22;;;;;;;4.15;0.98;;;;;;;;;;4989364;28;20046;-69
2022/09/17 14:32:53;;;;;;;5.07;1.00;;;;;;;;;;5000709;28;20077;-69
2022/09/17 14:35:31;;;;;;;2.78;0.80;;;;;;;;;;5008160;28;20034;-69
2022/09/17 14:38:02;;;;;;;2.08;1.00;;;;;;;;;;4981482;28;20128;-69
2022/09/17 14:40:29;;;;;;;1.65;0.88;;;;;;;;;;5013334;28;20046;-69
2022/09/17 14:42:56;;;;;;;2.20;1.10;;;;;;;;;;4982311;28;20050;-69
2022/09/17 14:45:28;;;;;;;4.03;0.90;;;;;;;;;;5016256;28;20057;-68
2022/09/17 14:48:20;;;;;;;2.60;0.80;;;;;;;;;;4982805;28;20492;-69
2022/09/17 14:50:47;;;;;;;5.40;1.60;;;;;;;;;;5015887;28;20053;-69
2022/09/17 14:53:16;;;;;;;2.88;0.88;;;;;;;;;;4998186;28;20045;-69
2022/09/17 14:55:48;;;;;;;3.38;1.65;;;;;;;;;;5015826;28;20054;-69
2022/09/17 14:58:35;;;;;;;1.52;0.65;;;;;;;;;;4998288;28;20057;-69
2022/09/17 15:01:02;;;;;;;2.63;0.80;;;;;;;;;;4982921;28;20045;-69
2022/09/17 15:03:29;;;;;;;3.20;1.30;;;;;;;;;;5015237;28;20112;-69
2022/09/17 15:05:55;;;;;;;1.70;1.00;;;;;;;;;;5015587;28;20398;-69
2022/09/17 15:08:24;;;;;;;2.40;0.77;;;;;;;;;;5015315;28;20559;-69
2022/09/17 15:10:51;;;;;;;1.63;0.70;;;;;;;;;;5015428;28;20548;-69
2022/09/17 15:13:31;;;;;;;3.78;1.00;;;;;;;;;;4997919;28;20520;-69
2022/09/17 15:16:03;;;;;;;4.07;0.77;;;;;;;;;;4998243;28;20420;-69
2022/09/17 15:18:40;;;;;;;;;;;;;;;;;;4998261;28;20064;-70
2022/09/17 15:21:33;;;;;;;1.83;0.90;;;;;;;;;;5015066;28;20403;-69